Time;durP1;ratioP1;P1;durP2;ratioP2;P2;SDS_P1;SDS_P2;PMS_P1;PMS_P2;Temp;Humidity;BMP_temperature;BMP_pressure;BME280_temperature;BME280_humidity;BME280_pressure;Samples;Min_cycle;Max_cycle;Signal;HPM_P1;HPM_P2
2023/06/14 00:00:35;;;;;;;;;;;19.60;51.10;;;;;;4991324;28;19914;-82
2023/06/14 00:03:03;;;;;;;;;;;19.70;49.80;;;;;;5059597;28;19925;-81
2023/06/14 00:05:29;;;;;;;;;;;19.60;50.10;;;;;;5057283;28;19961;-82
2023/06/14 00:07:55;;;;;;;;;;;19.60;50.70;;;;;;4987766;28;20358;-82
2023/06/14 00:10:20;;;;;;;;;;;19.50;51.10;;;;;;5070471;28;19928;-81
2023/06/14 00:12:46;;;;;;;;;;;19.50;50.00;;;;;;4995962;28;19950;-82
2023/06/14 00:15:11;;;;;;;;;;;19.50;50.70;;;;;;4994201;28;19929;-82
2023/06/14 00:17:38;;;;;;;;;;;19.30;51.10;;;;;;4994498;28;19929;-82
2023/06/14 00:20:07;;;;;;;;;;;19.30;51.30;;;;;;4984496;28;19925;-82
2023/06/14 00:22:33;;;;;;;;;;;19.20;51.50;;;;;;5053204;28;19922;-82
2023/06/14 00:24:58;;;;;;;;;;;19.10;51.50;;;;;;4973357;28;19914;-81
2023/06/14 00:27:24;;;;;;;;;;;19.10;51.60;;;;;;4987841;28;19918;-82
2023/06/14 00:29:50;;;;;;;;;;;19.00;51.50;;;;;;5059747;28;19910;-81
2023/06/14 00:32:15;;;;;;;;;;;19.00;51.90;;;;;;5057514;28;19918;-82
2023/06/14 00:34:41;;;;;;;;;;;19.00;51.50;;;;;;4992016;28;19925;-81
2023/06/14 00:37:06;;;;;;;;;;;19.00;51.40;;;;;;5067253;28;19920;-81
2023/06/14 00:39:32;;;;;;;;;;;19.00;51.90;;;;;;5063614;28;19975;-81
2023/06/14 00:41:59;;;;;;;;;;;19.00;51.60;;;;;;5076073;28;20553;-81
2023/06/14 00:44:24;;;;;;;;;;;19.00;51.50;;;;;;5045236;28;19932;-81
2023/06/14 00:46:50;;;;;;;;;;;19.00;51.50;;;;;;5062320;28;20307;-81
2023/06/14 00:49:15;;;;;;;;;;;19.00;51.70;;;;;;4997481;28;19963;-82
2023/06/14 00:51:45;;;;;;;;;;;19.00;51.90;;;;;;5066314;28;19910;-82
2023/06/14 00:54:10;;;;;;;;;;;19.00;52.70;;;;;;5062833;28;19990;-81
2023/06/14 00:56:36;;;;;;;;;;;18.90;52.00;;;;;;5059867;28;20076;-82
2023/06/14 00:59:02;;;;;;;;;;;18.90;51.90;;;;;;5063183;28;19915;-81
2023/06/14 01:01:28;;;;;;;;;;;18.80;53.00;;;;;;5060334;28;19922;-81
2023/06/14 01:03:54;;;;;;;;;;;19.00;51.40;;;;;;5060431;28;19958;-81
2023/06/14 01:06:29;;;;;;;;;;;19.00;51.10;;;;;;4995331;28;19914;-80
2023/06/14 01:09:00;;;;;;;;;;;18.90;51.30;;;;;;4996639;28;19960;-81
2023/06/14 01:11:32;;;;;;;;;;;18.90;51.20;;;;;;5056903;28;19913;-81
2023/06/14 01:13:59;;;;;;;;;;;18.90;51.00;;;;;;5064193;28;20483;-80
2023/06/14 01:16:25;;;;;;;;;;;18.80;51.20;;;;;;4995152;28;20533;-81
2023/06/14 01:18:52;;;;;;;;;;;18.70;51.30;;;;;;5075941;28;19914;-81
2023/06/14 01:21:24;;;;;;;;;;;18.60;51.40;;;;;;4993901;28;20494;-81
2023/06/14 01:23:54;;;;;;;;;;;18.60;51.40;;;;;;5080284;28;19914;-81
2023/06/14 01:26:20;;;;;;;;;;;18.50;52.10;;;;;;5075112;28;19994;-80
2023/06/14 01:28:48;;;;;;;;;;;18.50;51.90;;;;;;5062340;28;20039;-81
2023/06/14 01:31:17;;;;;;;;;;;18.50;51.80;;;;;;5063906;28;20355;-81
2023/06/14 01:33:43;;;;;;;;;;;18.40;52.20;;;;;;5073708;28;19918;-82
2023/06/14 01:36:09;;;;;;;;;;;18.40;52.50;;;;;;5044598;28;19929;-82
2023/06/14 01:38:35;;;;;;;;;;;18.40;52.70;;;;;;5058458;28;19928;-81
2023/06/14 01:41:02;;;;;;;;;;;18.50;51.60;;;;;;5070301;28;19961;-82
2023/06/14 01:43:29;;;;;;;;;;;18.50;51.70;;;;;;5066511;28;19989;-81
2023/06/14 01:45:56;;;;;;;;;;;18.50;52.50;;;;;;5061664;28;19917;-81
2023/06/14 01:48:21;;;;;;;;;;;18.40;51.80;;;;;;5056544;28;19913;-80
2023/06/14 01:50:48;;;;;;;;;;;18.40;51.60;;;;;;4986557;28;20385;-81
2023/06/14 01:53:13;;;;;;;;;;;18.40;52.00;;;;;;5057718;28;19998;-81
2023/06/14 01:55:43;;;;;;;;;;;18.40;51.70;;;;;;4984669;28;19914;-80
2023/06/14 01:58:08;;;;;;;;;;;18.30;52.30;;;;;;5053996;28;19914;-81
2023/06/14 02:00:34;;;;;;;;;;;18.30;52.00;;;;;;4997655;28;19949;-81
2023/06/14 02:03:00;;;;;;;;;;;18.30;51.90;;;;;;5058030;28;19963;-80
2023/06/14 02:05:26;;;;;;;;;;;18.30;52.30;;;;;;5060308;28;19921;-81
2023/06/14 02:07:53;;;;;;;;;;;18.10;52.40;;;;;;5065065;28;20280;-80
2023/06/14 02:10:18;;;;;;;;;;;18.10;52.40;;;;;;5060334;28;19918;-80
2023/06/14 02:12:44;;;;;;;;;;;18.10;52.30;;;;;;4990949;28;19976;-81
2023/06/14 02:15:16;;;;;;;;;;;17.90;52.90;;;;;;5056761;28;19918;-81
2023/06/14 02:17:46;;;;;;;;;;;18.00;52.50;;;;;;4987623;28;19914;-82
2023/06/14 02:20:12;;;;;;;;;;;18.10;52.40;;;;;;5057277;28;19910;-82
2023/06/14 02:22:38;;;;;;;;;;;18.00;52.50;;;;;;5001260;28;19925;-81
2023/06/14 02:25:03;;;;;;;;;;;17.90;52.70;;;;;;4993392;28;19925;-81
2023/06/14 02:27:29;;;;;;;;;;;17.90;53.30;;;;;;5050769;28;19932;-82
2023/06/14 02:29:54;;;;;;;;;;;18.00;52.30;;;;;;5067379;28;19914;-81
2023/06/14 02:32:20;;;;;;;;;;;17.80;53.20;;;;;;5065682;28;19979;-81
2023/06/14 02:34:49;;;;;;;;;;;17.90;52.20;;;;;;5065832;28;19961;-81
2023/06/14 02:37:18;;;;;;;;;;;17.90;52.50;;;;;;5075156;28;19914;-82
2023/06/14 02:39:43;;;;;;;;;;;17.80;52.70;;;;;;5063541;28;19981;-82
2023/06/14 02:42:08;;;;;;;;;;;17.70;52.60;;;;;;5059954;28;20456;-81
2023/06/14 02:44:35;;;;;;;;;;;17.60;53.10;;;;;;5006020;28;19926;-80
2023/06/14 02:47:00;;;;;;;;;;;17.60;53.30;;;;;;4995476;28;19913;-80
2023/06/14 02:49:26;;;;;;;;;;;17.60;53.00;;;;;;4995998;28;19921;-81
2023/06/14 02:51:51;;;;;;;;;;;17.50;53.30;;;;;;4994744;28;19974;-81
2023/06/14 02:54:17;;;;;;;;;;;17.60;53.30;;;;;;4992220;28;20283;-80
2023/06/14 02:56:42;;;;;;;;;;;17.60;53.40;;;;;;4994975;28;20025;-81
2023/06/14 02:59:09;;;;;;;;;;;17.50;53.20;;;;;;4992353;28;19921;-81
2023/06/14 03:01:34;;;;;;;;;;;17.50;53.50;;;;;;5074586;28;19918;-81
2023/06/14 03:04:01;;;;;;;;;;;17.40;53.50;;;;;;4993617;28;19937;-81
2023/06/14 03:06:29;;;;;;;;;;;17.20;53.80;;;;;;5078902;28;20437;-81
2023/06/14 03:08:56;;;;;;;;;;;17.10;54.20;;;;;;5062486;28;20589;-81
2023/06/14 03:11:22;;;;;;;;;;;17.10;54.30;;;;;;5078113;28;19925;-80
2023/06/14 03:13:47;;;;;;;;;;;17.10;54.30;;;;;;4996061;28;19975;-81
2023/06/14 03:16:13;;;;;;;;;;;17.00;54.60;;;;;;5074873;28;20363;-81
2023/06/14 03:18:39;;;;;;;;;;;17.10;54.50;;;;;;5061392;28;19914;-81
2023/06/14 03:21:04;;;;;;;;;;;17.00;54.80;;;;;;5060646;28;20464;-82
2023/06/14 03:23:30;;;;;;;;;;;17.00;54.80;;;;;;5076392;28;20300;-81
2023/06/14 03:25:56;;;;;;;;;;;16.80;55.40;;;;;;5077607;28;19946;-81
2023/06/14 03:28:22;;;;;;;;;;;16.90;55.20;;;;;;5063977;28;19936;-80
2023/06/14 03:30:47;;;;;;;;;;;16.90;55.50;;;;;;5061421;28;19914;-82
2023/06/14 03:33:13;;;;;;;;;;;16.80;55.50;;;;;;5059412;28;19964;-82
2023/06/14 03:35:39;;;;;;;;;;;16.80;55.40;;;;;;5059269;28;19925;-83
2023/06/14 03:38:05;;;;;;;;;;;16.80;55.60;;;;;;5055754;28;19918;-84
2023/06/14 03:40:31;;;;;;;;;;;16.80;55.50;;;;;;5058403;28;19924;-83
2023/06/14 03:42:56;;;;;;;;;;;16.80;55.50;;;;;;5052826;28;20444;-83
2023/06/14 03:45:22;;;;;;;;;;;16.60;56.00;;;;;;5072830;28;19959;-83
2023/06/14 03:47:47;;;;;;;;;;;16.60;56.50;;;;;;5075052;28;19918;-82
2023/06/14 03:50:13;;;;;;;;;;;16.50;56.40;;;;;;5066444;28;19917;-83
2023/06/14 03:52:38;;;;;;;;;;;16.50;56.90;;;;;;5055469;28;19925;-83
2023/06/14 03:55:04;;;;;;;;;;;16.60;56.60;;;;;;4978815;28;19910;-83
2023/06/14 03:57:30;;;;;;;;;;;16.60;56.60;;;;;;5058832;28;20367;-83
2023/06/14 03:59:55;;;;;;;;;;;16.60;57.10;;;;;;5058634;28;19910;-82
2023/06/14 04:02:22;;;;;;;;;;;16.60;56.80;;;;;;5057930;28;19914;-82
2023/06/14 04:04:48;;;;;;;;;;;16.50;56.70;;;;;;5056107;28;19918;-83
2023/06/14 04:07:14;;;;;;;;;;;16.50;56.30;;;;;;5055919;28;19953;-82
2023/06/14 04:09:40;;;;;;;;;;;16.50;57.00;;;;;;5049425;28;19939;-83
2023/06/14 04:12:06;;;;;;;;;;;16.40;57.00;;;;;;5057429;28;19917;-82
2023/06/14 04:14:32;;;;;;;;;;;16.40;57.70;;;;;;4985083;28;20013;-82
2023/06/14 04:16:58;;;;;;;;;;;16.20;58.20;;;;;;4976988;28;20407;-83
2023/06/14 04:19:24;;;;;;;;;;;16.20;58.00;;;;;;4982406;28;19972;-82
2023/06/14 04:21:50;;;;;;;;;;;16.20;58.50;;;;;;4991909;28;19918;-83
2023/06/14 04:24:15;;;;;;;;;;;16.30;58.80;;;;;;4990734;28;20402;-81
2023/06/14 04:26:41;;;;;;;;;;;16.40;58.30;;;;;;4990889;28;20367;-83
2023/06/14 04:29:06;;;;;;;;;;;16.40;58.30;;;;;;4991710;28;20010;-83
2023/06/14 04:31:37;;;;;;;;;;;16.40;59.00;;;;;;5070114;28;19910;-83
2023/06/14 04:34:05;;;;;;;;;;;16.40;58.30;;;;;;5001875;28;19918;-83
2023/06/14 04:36:36;;;;;;;;;;;16.50;57.40;;;;;;5053429;28;19918;-81
2023/06/14 04:39:06;;;;;;;;;;;16.50;57.80;;;;;;5058176;28;19965;-82
2023/06/14 04:41:31;;;;;;;;;;;16.50;57.70;;;;;;5083034;28;19918;-83
2023/06/14 04:43:58;;;;;;;;;;;16.60;57.70;;;;;;4997239;28;19924;-82
2023/06/14 04:46:24;;;;;;;;;;;16.60;57.90;;;;;;5067163;28;19945;-83
2023/06/14 04:48:50;;;;;;;;;;;16.70;57.70;;;;;;4993541;28;19944;-82
2023/06/14 04:51:16;;;;;;;;;;;16.80;57.60;;;;;;5059163;28;19933;-84
2023/06/14 04:53:43;;;;;;;;;;;16.80;57.30;;;;;;5055167;28;19922;-81
2023/06/14 04:56:09;;;;;;;;;;;16.80;57.70;;;;;;5050990;28;19920;-81
2023/06/14 04:58:35;;;;;;;;;;;16.90;57.20;;;;;;4986305;28;19918;-80
2023/06/14 05:01:01;;;;;;;;;;;17.00;57.40;;;;;;4985455;28;19913;-82
2023/06/14 05:03:27;;;;;;;;;;;17.00;57.00;;;;;;5057778;28;20406;-81
2023/06/14 05:05:53;;;;;;;;;;;17.00;56.90;;;;;;4990422;28;19937;-82
2023/06/14 05:08:18;;;;;;;;;;;17.00;57.40;;;;;;4988577;28;19922;-83
2023/06/14 05:10:44;;;;;;;;;;;17.00;57.60;;;;;;5067741;28;19977;-83
2023/06/14 05:13:10;;;;;;;;;;;17.10;58.00;;;;;;5066315;28;20410;-81
2023/06/14 05:15:35;;;;;;;;;;;17.10;57.60;;;;;;5058838;28;19920;-82
2023/06/14 05:18:02;;;;;;;;;;;17.20;57.90;;;;;;5053629;28;19914;-83
2023/06/14 05:20:28;;;;;;;;;;;17.30;57.70;;;;;;4987700;28;19911;-82
2023/06/14 05:22:54;;;;;;;;;;;17.50;57.50;;;;;;5045945;28;19925;-82
2023/06/14 05:25:20;;;;;;;;;;;17.60;56.90;;;;;;4979038;28;19914;-82
2023/06/14 05:27:46;;;;;;;;;;;17.60;55.70;;;;;;4992141;28;19968;-86
2023/06/14 05:30:12;;;;;;;;;;;17.60;56.40;;;;;;5055783;28;19929;-84
2023/06/14 05:32:37;;;;;;;;;;;17.70;56.70;;;;;;5054379;28;20346;-83
2023/06/14 05:35:03;;;;;;;;;;;17.90;56.30;;;;;;5050464;28;19945;-84
2023/06/14 05:37:30;;;;;;;;;;;17.90;55.50;;;;;;4986795;28;19957;-83
2023/06/14 05:39:56;;;;;;;;;;;18.00;55.60;;;;;;4992989;28;19920;-83
2023/06/14 05:42:21;;;;;;;;;;;18.00;55.20;;;;;;5077711;28;19913;-83
2023/06/14 05:44:47;;;;;;;;;;;18.10;56.00;;;;;;5076522;28;19928;-84
2023/06/14 05:47:12;;;;;;;;;;;18.20;55.20;;;;;;4973899;28;19910;-83
2023/06/14 05:49:38;;;;;;;;;;;18.30;53.40;;;;;;4974104;28;19925;-84
2023/06/14 05:52:03;;;;;;;;;;;18.50;52.80;;;;;;5040576;28;19969;-84
2023/06/14 05:54:29;;;;;;;;;;;18.50;52.50;;;;;;5039790;28;19915;-85
2023/06/14 05:56:54;;;;;;;;;;;18.60;53.00;;;;;;4973301;28;19921;-83
2023/06/14 05:59:23;;;;;;;;;;;18.40;52.70;;;;;;4974586;28;20445;-84
2023/06/14 06:01:48;;;;;;;;;;;18.20;53.40;;;;;;4990437;28;19910;-84
2023/06/14 06:04:21;;;;;;;;;;;18.20;53.30;;;;;;5062314;28;20352;-84
2023/06/14 06:06:47;;;;;;;;;;;18.20;53.80;;;;;;5054029;28;19910;-84
2023/06/14 06:09:14;;;;;;;;;;;18.20;54.30;;;;;;5061376;28;20050;-87
2023/06/14 06:11:40;;;;;;;;;;;18.30;53.40;;;;;;4996299;28;19956;-87
2023/06/14 06:14:05;;;;;;;;;;;18.30;53.20;;;;;;5065123;28;19913;-84
2023/06/14 06:16:33;;;;;;;;;;;18.30;52.90;;;;;;5048196;28;19941;-85
2023/06/14 06:18:59;;;;;;;;;;;18.40;53.50;;;;;;5043491;28;20348;-85
2023/06/14 06:21:24;;;;;;;;;;;18.50;54.80;;;;;;5043657;28;19929;-83
2023/06/14 06:23:50;;;;;;;;;;;18.60;53.30;;;;;;5042125;28;19910;-84
2023/06/14 06:26:15;;;;;;;;;;;18.80;53.80;;;;;;4974514;28;20342;-84
2023/06/14 06:28:41;;;;;;;;;;;18.80;53.10;;;;;;4974020;28;19928;-84
2023/06/14 06:31:06;;;;;;;;;;;18.90;53.60;;;;;;4974254;28;19910;-84
2023/06/14 06:33:32;;;;;;;;;;;18.90;52.10;;;;;;4973785;28;19914;-85
2023/06/14 06:35:57;;;;;;;;;;;18.90;52.90;;;;;;4977069;28;20134;-84
2023/06/14 06:38:23;;;;;;;;;;;19.00;52.60;;;;;;4993365;28;19910;-85
2023/06/14 06:40:48;;;;;;;;;;;18.90;52.60;;;;;;5054163;28;19917;-85
2023/06/14 06:43:14;;;;;;;;;;;19.00;52.80;;;;;;5050884;28;20054;-86
2023/06/14 06:45:40;;;;;;;;;;;19.00;51.90;;;;;;4983280;28;19914;-83
2023/06/14 06:48:05;;;;;;;;;;;19.00;52.70;;;;;;4975417;28;19964;-84
2023/06/14 06:50:31;;;;;;;;;;;19.00;52.70;;;;;;5044995;28;19960;-84
2023/06/14 06:52:57;;;;;;;;;;;19.20;52.30;;;;;;5053582;28;19955;-84
2023/06/14 06:55:22;;;;;;;;;;;19.10;51.40;;;;;;4977093;28;19918;-85
2023/06/14 06:57:49;;;;;;;;;;;19.20;52.30;;;;;;5047057;28;20355;-84
2023/06/14 07:00:15;;;;;;;;;;;19.40;52.10;;;;;;4985922;28;19945;-85
2023/06/14 07:02:41;;;;;;;;;;;19.50;52.60;;;;;;4990757;28;20395;-84
2023/06/14 07:05:07;;;;;;;;;;;19.50;51.50;;;;;;5059726;28;20021;-85
2023/06/14 07:07:32;;;;;;;;;;;19.50;51.70;;;;;;5057842;28;20000;-90
2023/06/14 07:10:03;;;;;;;;;;;19.60;51.40;;;;;;5042843;28;19914;-88
2023/06/14 07:12:29;;;;;;;;;;;19.50;51.30;;;;;;5039612;28;20260;-87
2023/06/14 07:14:55;;;;;;;;;;;19.50;51.10;;;;;;5045454;28;19958;-86
2023/06/14 07:17:20;;;;;;;;;;;19.40;51.40;;;;;;5054959;28;20096;-86
2023/06/14 07:19:46;;;;;;;;;;;19.50;51.60;;;;;;5054588;28;19921;-84
2023/06/14 07:22:12;;;;;;;;;;;19.60;51.60;;;;;;5052979;28;19918;-89
2023/06/14 07:24:38;;;;;;;;;;;19.60;50.80;;;;;;5055600;28;19909;-88
2023/06/14 07:27:04;;;;;;;;;;;19.50;51.20;;;;;;5058209;28;19945;-85
2023/06/14 07:29:37;;;;;;;;;;;19.60;50.40;;;;;;5058355;28;19918;-88
2023/06/14 07:32:11;;;;;;;;;;;19.60;51.60;;;;;;5064218;28;19913;-86
2023/06/14 07:34:39;;;;;;;;;;;19.60;50.70;;;;;;5062276;28;20290;-86
2023/06/14 07:37:13;;;;;;;;;;;19.60;51.20;;;;;;5060568;28;19910;-87
2023/06/14 07:39:39;;;;;;;;;;;19.60;51.00;;;;;;5053348;28;19924;-86
2023/06/14 07:42:04;;;;;;;;;;;19.60;50.50;;;;;;5054828;28;19949;-85
2023/06/14 07:44:31;;;;;;;;;;;19.60;50.70;;;;;;5054421;28;19914;-87
2023/06/14 07:46:58;;;;;;;;;;;19.60;50.60;;;;;;5058894;28;19993;-87
2023/06/14 07:49:27;;;;;;;;;;;19.60;51.40;;;;;;5054917;28;20061;-86
2023/06/14 07:51:53;;;;;;;;;;;19.60;50.50;;;;;;5058421;28;19956;-86
2023/06/14 07:54:20;;;;;;;;;;;19.60;50.90;;;;;;5055732;28;19914;-85
2023/06/14 07:56:45;;;;;;;;;;;19.50;51.30;;;;;;5056875;28;19914;-88
2023/06/14 07:59:11;;;;;;;;;;;19.40;51.70;;;;;;5046291;28;20001;-86
2023/06/14 08:01:36;;;;;;;;;;;19.50;52.10;;;;;;5056438;28;19920;-85
2023/06/14 08:04:05;;;;;;;;;;;19.60;50.90;;;;;;5067065;28;20673;-89
2023/06/14 08:06:31;;;;;;;;;;;19.50;51.40;;;;;;5061081;28;19936;-86
2023/06/14 08:08:56;;;;;;;;;;;19.50;50.30;;;;;;5059442;28;19939;-85
2023/06/14 08:11:24;;;;;;;;;;;19.60;50.00;;;;;;5059928;28;20065;-86
2023/06/14 08:13:49;;;;;;;;;;;19.60;48.60;;;;;;5073433;28;19921;-86
2023/06/14 08:16:15;;;;;;;;;;;19.60;48.80;;;;;;4997771;28;19905;-86
2023/06/14 08:18:40;;;;;;;;;;;19.60;49.20;;;;;;5062672;28;19914;-86
2023/06/14 08:21:07;;;;;;;;;;;19.80;50.70;;;;;;5047578;28;20001;-87
2023/06/14 08:23:32;;;;;;;;;;;20.00;49.20;;;;;;4996286;28;19990;-86
2023/06/14 08:25:58;;;;;;;;;;;20.00;49.30;;;;;;4969034;28;19914;-85
2023/06/14 08:28:24;;;;;;;;;;;20.00;49.20;;;;;;5072516;28;20403;-85
2023/06/14 08:30:50;;;;;;;;;;;20.10;48.50;;;;;;5012353;28;19983;-86
2023/06/14 08:33:15;;;;;;;;;;;20.10;47.80;;;;;;5070031;28;19968;-86
2023/06/14 08:35:41;;;;;;;;;;;20.20;47.50;;;;;;5070161;28;19922;-87
2023/06/14 08:38:06;;;;;;;;;;;20.30;47.90;;;;;;4971063;28;19985;-86
2023/06/14 08:40:36;;;;;;;;;;;20.20;45.40;;;;;;4970696;28;19936;-88
2023/06/14 08:43:02;;;;;;;;;;;20.10;45.80;;;;;;5054333;28;19974;-85
2023/06/14 08:45:27;;;;;;;;;;;20.20;46.60;;;;;;5056030;28;19949;-86
2023/06/14 08:47:59;;;;;;;;;;;20.10;44.90;;;;;;5050315;28;19960;-90
2023/06/14 08:50:34;;;;;;;;;;;20.10;46.50;;;;;;5055035;28;19957;-86
2023/06/14 08:53:02;;;;;;;;;;;20.10;45.60;;;;;;5046456;28;20437;-85
2023/06/14 08:55:28;;;;;;;;;;;20.10;45.40;;;;;;5050813;28;19957;-86
2023/06/14 08:57:54;;;;;;;;;;;20.10;45.90;;;;;;5051637;28;19925;-85
2023/06/14 09:00:20;;;;;;;;;;;20.10;47.00;;;;;;5046498;28;19973;-86
2023/06/14 09:02:46;;;;;;;;;;;20.10;46.90;;;;;;5081063;28;19903;-86
2023/06/14 09:05:17;;;;;;;;;;;20.20;45.50;;;;;;5070585;28;19914;-86
2023/06/14 09:07:43;;;;;;;;;;;20.10;44.60;;;;;;4987622;28;19910;-87
2023/06/14 09:10:10;;;;;;;;;;;20.10;45.00;;;;;;4990375;28;20004;-87
2023/06/14 09:12:36;;;;;;;;;;;20.10;46.30;;;;;;5053525;28;19949;-85
2023/06/14 09:15:05;;;;;;;;;;;20.10;47.10;;;;;;4985636;28;19983;-86
2023/06/14 09:17:36;;;;;;;;;;;20.20;46.90;;;;;;4987787;28;19918;-88
2023/06/14 09:20:06;;;;;;;;;;;20.30;46.10;;;;;;5049682;28;19918;-84
2023/06/14 09:22:31;;;;;;;;;;;20.30;45.60;;;;;;5076153;28;20264;-86
2023/06/14 09:24:57;;;;;;;;;;;20.40;47.30;;;;;;4991416;28;20000;-85
2023/06/14 09:27:22;;;;;;;;;;;20.50;46.40;;;;;;5059468;28;20028;-86
2023/06/14 09:29:48;;;;;;;;;;;20.60;46.60;;;;;;5006261;28;19910;-87
2023/06/14 09:32:13;;;;;;;;;;;20.70;45.70;;;;;;5063929;28;19914;-86
2023/06/14 09:34:39;;;;;;;;;;;20.70;46.20;;;;;;5053825;28;19963;-86
2023/06/14 09:37:05;;;;;;;;;;;20.60;46.30;;;;;;5075384;28;19941;-86
2023/06/14 09:39:30;;;;;;;;;;;20.80;46.10;;;;;;4980703;28;19910;-87
2023/06/14 09:41:56;;;;;;;;;;;20.90;44.40;;;;;;5049462;28;19986;-86
2023/06/14 09:44:21;;;;;;;;;;;20.80;44.20;;;;;;4980549;28;19914;-90
2023/06/14 09:46:48;;;;;;;;;;;20.80;44.50;;;;;;5066933;28;19933;-88
2023/06/14 09:49:13;;;;;;;;;;;20.80;46.40;;;;;;5051487;28;19910;-87
2023/06/14 09:51:55;;;;;;;;;;;20.60;44.80;;;;;;5039995;28;19914;-89
2023/06/14 09:54:22;;;;;;;;;;;20.50;46.20;;;;;;5052638;28;19922;-86
2023/06/14 09:56:50;;;;;;;;;;;20.50;46.60;;;;;;5043826;28;19960;-85
2023/06/14 09:59:33;;;;;;;;;;;20.50;46.80;;;;;;5055410;28;19914;-90
2023/06/14 10:02:00;;;;;;;;;;;20.50;47.10;;;;;;4981085;28;19913;-87
2023/06/14 10:04:31;;;;;;;;;;;20.60;47.10;;;;;;4981345;28;20431;-88
2023/06/14 10:06:57;;;;;;;;;;;20.70;46.90;;;;;;5052180;28;19913;-88
2023/06/14 10:09:22;;;;;;;;;;;20.80;46.50;;;;;;5048263;28;19949;-86
2023/06/14 10:11:49;;;;;;;;;;;20.80;47.20;;;;;;4982671;28;19922;-85
2023/06/14 10:14:26;;;;;;;;;;;20.50;47.50;;;;;;5071401;28;19918;-88
2023/06/14 10:17:00;;;;;;;;;;;20.50;48.20;;;;;;5051607;28;19915;-86
2023/06/14 10:19:37;;;;;;;;;;;20.70;47.50;;;;;;5044792;28;19914;-85
2023/06/14 10:22:06;;;;;;;;;;;21.00;47.30;;;;;;5053462;28;19926;-88
2023/06/14 10:24:44;;;;;;;;;;;21.10;46.30;;;;;;5072657;28;19925;-86
2023/06/14 10:27:13;;;;;;;;;;;20.90;48.00;;;;;;5050086;28;19917;-85
2023/06/14 10:29:54;;;;;;;;;;;21.00;46.80;;;;;;5055128;28;19914;-86
2023/06/14 10:32:24;;;;;;;;;;;21.10;48.10;;;;;;5067686;28;20256;-87
2023/06/14 10:34:56;;;;;;;;;;;21.00;47.70;;;;;;5073422;28;19953;-86
2023/06/14 10:37:22;;;;;;;;;;;21.10;47.90;;;;;;5056573;28;19926;-85
2023/06/14 10:39:48;;;;;;;;;;;21.10;47.20;;;;;;5062058;28;20071;-84
2023/06/14 10:42:16;;;;;;;;;;;21.10;46.40;;;;;;4983423;28;19910;-86
2023/06/14 10:44:45;;;;;;;;;;;21.00;47.20;;;;;;5062976;28;19918;-85
2023/06/14 10:47:22;;;;;;;;;;;21.10;47.30;;;;;;5057699;28;20386;-86
2023/06/14 10:49:50;;;;;;;;;;;21.10;48.30;;;;;;5058422;28;19957;-87
2023/06/14 10:52:16;;;;;;;;;;;21.10;48.10;;;;;;5069233;28;20390;-86
2023/06/14 10:55:04;;;;;;;;;;;21.10;47.90;;;;;;5053256;28;19925;-86
2023/06/14 10:57:31;;;;;;;;;;;21.50;48.50;;;;;;5069671;28;19924;-84
2023/06/14 10:59:57;;;;;;;;;;;21.60;47.30;;;;;;4992811;28;20146;-85
2023/06/14 11:02:42;;;;;;;;;;;21.50;47.00;;;;;;4986198;28;20017;-85
2023/06/14 11:05:11;;;;;;;;;;;21.30;47.90;;;;;;5048979;28;19921;-85
2023/06/14 11:07:53;;;;;;;;;;;21.30;47.50;;;;;;4984844;28;19936;-85
2023/06/14 11:10:25;;;;;;;;;;;21.30;47.80;;;;;;4989257;28;19925;-85
2023/06/14 11:12:53;;;;;;;;;;;21.50;47.50;;;;;;4990611;28;19951;-85
2023/06/14 11:15:20;;;;;;;;;;;21.50;47.50;;;;;;5048221;28;19910;-85
2023/06/14 11:17:57;;;;;;;;;;;21.60;47.50;;;;;;4989276;28;19918;-85
2023/06/14 11:20:25;;;;;;;;;;;21.80;46.50;;;;;;5057390;28;19921;-83
2023/06/14 11:22:50;;;;;;;;;;;21.60;46.60;;;;;;4981886;28;19929;-85
2023/06/14 11:25:16;;;;;;;;;;;21.60;47.10;;;;;;4986801;28;19910;-83
2023/06/14 11:27:42;;;;;;;;;;;21.60;46.60;;;;;;5052206;28;19940;-85
2023/06/14 11:30:11;;;;;;;;;;;21.50;46.80;;;;;;4994098;28;19917;-84
2023/06/14 11:32:37;;;;;;;;;;;21.50;46.70;;;;;;4988923;28;20022;-83
2023/06/14 11:35:04;;;;;;;;;;;21.50;47.40;;;;;;4987214;28;20371;-82
2023/06/14 11:37:30;;;;;;;;;;;21.50;47.10;;;;;;5070867;28;19925;-83
2023/06/14 11:39:57;;;;;;;;;;;21.60;46.40;;;;;;4986985;28;19993;-84
2023/06/14 11:42:22;;;;;;;;;;;21.60;46.70;;;;;;5056692;28;19925;-84
2023/06/14 11:44:51;;;;;;;;;;;21.70;46.60;;;;;;4987263;28;19914;-84
2023/06/14 11:47:16;;;;;;;;;;;21.80;47.40;;;;;;4988621;28;19910;-83
2023/06/14 11:49:43;;;;;;;;;;;22.00;46.80;;;;;;4980531;28;19952;-85
2023/06/14 11:52:08;;;;;;;;;;;22.10;46.90;;;;;;5049783;28;19914;-84
2023/06/14 11:54:34;;;;;;;;;;;22.10;46.40;;;;;;5047137;28;19922;-84
2023/06/14 11:57:00;;;;;;;;;;;22.10;45.30;;;;;;4983576;28;19909;-83
2023/06/14 11:59:44;;;;;;;;;;;22.00;44.90;;;;;;5060097;28;19914;-84
2023/06/14 12:02:33;;;;;;;;;;;22.00;46.70;;;;;;5051213;28;20056;-84
2023/06/14 12:05:03;;;;;;;;;;;22.10;47.50;;;;;;5051019;28;19910;-83
2023/06/14 12:07:31;;;;;;;;;;;22.10;45.20;;;;;;5053844;28;19914;-84
2023/06/14 12:09:56;;;;;;;;;;;22.10;46.40;;;;;;4988756;28;19910;-82
2023/06/14 12:12:22;;;;;;;;;;;22.00;45.30;;;;;;5010374;28;19967;-81
2023/06/14 12:14:50;;;;;;;;;;;22.10;45.60;;;;;;4989733;28;19914;-83
2023/06/14 12:17:17;;;;;;;;;;;22.20;45.30;;;;;;4984830;28;19922;-85
2023/06/14 12:19:43;;;;;;;;;;;22.30;46.10;;;;;;5044471;28;19925;-85
2023/06/14 12:22:12;;;;;;;;;;;22.50;45.20;;;;;;5051030;28;19929;-85
2023/06/14 12:24:39;;;;;;;;;;;22.50;44.70;;;;;;4992983;28;20092;-83
2023/06/14 12:27:05;;;;;;;;;;;22.30;45.30;;;;;;4988513;28;19914;-82
2023/06/14 12:29:30;;;;;;;;;;;22.40;45.60;;;;;;5050809;28;19918;-84
2023/06/14 12:31:59;;;;;;;;;;;22.30;44.60;;;;;;4988459;28;19914;-86
2023/06/14 12:34:35;;;;;;;;;;;22.30;45.10;;;;;;5048481;28;19922;-84
2023/06/14 12:37:00;;;;;;;;;;;22.40;44.90;;;;;;5057360;28;19914;-85
2023/06/14 12:39:25;;;;;;;;;;;22.50;43.80;;;;;;5050883;28;20399;-85
2023/06/14 12:41:58;;;;;;;;;;;22.60;44.60;;;;;;5056140;28;19914;-85
2023/06/14 12:44:23;;;;;;;;;;;22.70;44.40;;;;;;4988811;28;19982;-87
2023/06/14 12:46:51;;;;;;;;;;;22.70;43.60;;;;;;5021453;28;19948;-85
2023/06/14 12:49:19;;;;;;;;;;;22.50;44.00;;;;;;5049128;28;19925;-84
2023/06/14 12:51:45;;;;;;;;;;;22.50;44.90;;;;;;5048855;28;19985;-84
2023/06/14 12:54:17;;;;;;;;;;;22.60;43.50;;;;;;5068814;28;20351;-84
2023/06/14 12:56:44;;;;;;;;;;;22.60;44.00;;;;;;5064664;28;19911;-87
2023/06/14 12:59:10;;;;;;;;;;;22.70;44.80;;;;;;4976635;28;19911;-86
2023/06/14 13:01:37;;;;;;;;;;;22.80;44.80;;;;;;5050905;28;19910;-86
2023/06/14 13:04:03;;;;;;;;;;;22.80;44.10;;;;;;4988983;28;19953;-85
2023/06/14 13:06:31;;;;;;;;;;;22.90;44.60;;;;;;5055852;28;20024;-85
2023/06/14 13:09:03;;;;;;;;;;;23.00;42.70;;;;;;5059865;28;19914;-88
2023/06/14 13:11:29;;;;;;;;;;;23.10;41.90;;;;;;5053274;28;19924;-84
2023/06/14 13:13:54;;;;;;;;;;;22.90;43.20;;;;;;4973882;28;20021;-84
2023/06/14 13:16:23;;;;;;;;;;;22.90;44.10;;;;;;5053742;28;19914;-86
2023/06/14 13:18:48;;;;;;;;;;;23.00;42.90;;;;;;5033369;28;20307;-85
2023/06/14 13:21:14;;;;;;;;;;;23.00;43.10;;;;;;5016252;28;19918;-84
2023/06/14 13:23:40;;;;;;;;;;;22.90;44.10;;;;;;4986869;28;19968;-85
2023/06/14 13:26:05;;;;;;;;;;;23.00;42.90;;;;;;4982868;28;19922;-82
2023/06/14 13:28:32;;;;;;;;;;;22.80;42.80;;;;;;4987932;28;19972;-82
2023/06/14 13:30:57;;;;;;;;;;;23.00;44.40;;;;;;5052358;28;20298;-81
2023/06/14 13:33:24;;;;;;;;;;;23.00;42.30;;;;;;5055573;28;19985;-86
2023/06/14 13:35:49;;;;;;;;;;;23.10;42.20;;;;;;5061450;28;19993;-84
2023/06/14 13:38:15;;;;;;;;;;;22.90;42.80;;;;;;5060011;28;19962;-82
2023/06/14 13:40:41;;;;;;;;;;;23.00;42.30;;;;;;5067035;28;19914;-85
2023/06/14 13:43:06;;;;;;;;;;;22.90;42.70;;;;;;5052122;28;19914;-85
2023/06/14 13:45:32;;;;;;;;;;;23.00;42.20;;;;;;4986183;28;19920;-85
2023/06/14 13:47:57;;;;;;;;;;;22.90;42.70;;;;;;4992130;28;19914;-84
2023/06/14 13:50:23;;;;;;;;;;;23.00;42.80;;;;;;4995475;28;19933;-84
2023/06/14 13:52:48;;;;;;;;;;;23.00;43.30;;;;;;4993399;28;20193;-85
2023/06/14 13:55:14;;;;;;;;;;;23.00;42.70;;;;;;5047658;28;19921;-87
2023/06/14 13:57:39;;;;;;;;;;;23.00;43.10;;;;;;5052962;28;19914;-86
2023/06/14 14:00:08;;;;;;;;;;;23.00;41.60;;;;;;5048815;28;19918;-85
2023/06/14 14:02:34;;;;;;;;;;;22.80;43.60;;;;;;5059385;28;20404;-84
2023/06/14 14:04:59;;;;;;;;;;;22.90;43.50;;;;;;5052744;28;20012;-83
2023/06/14 14:07:25;;;;;;;;;;;23.00;43.20;;;;;;4988537;28;19922;-85
2023/06/14 14:09:51;;;;;;;;;;;23.10;43.40;;;;;;5028910;28;19954;-85
2023/06/14 14:12:16;;;;;;;;;;;23.10;42.30;;;;;;4987166;28;19917;-84
2023/06/14 14:14:46;;;;;;;;;;;23.10;42.70;;;;;;4985783;28;19921;-85